Time,TemperatureF,DewpointF,PressureIn,WindDirection,WindDirectionDegrees,WindSpeedMPH,WindSpeedGustMPH,Humidity,HourlyPrecipIn,Conditions,Clouds,dailyrainin,SoftwareType,DateUTC
2013-05-01 00:01:00,56.5,52.4,29.99,SSW,198,0.0,1.0,86,0.00,,,0.08,WUHU216DAVISVP2,2013-05-01 04:01:00,
2013-05-01 00:06:00,56.3,52.2,29.99,SSW,198,0.0,1.0,86,0.00,,,0.00,WUHU216DAVISVP2,2013-05-01 04:06:00,
2013-05-01 00:11:00,56.0,52.2,29.99,SSW,198,0.0,1.0,87,0.00,,,0.00,WUHU216DAVISVP2,2013-05-01 04:11:00,
2013-05-01 00:16:00,55.9,52.4,29.99,SSW,198,0.0,1.0,88,0.00,,,0.00,WUHU216DAVISVP2,2013-05-01 04:16:00,
2013-05-01 00:21:00,55.8,52.3,29.99,SSW,198,0.0,1.0,88,0.00,,,0.00,WUHU216DAVISVP2,2013-05-01 04:21:00,
2013-05-01 00:26:00,55.7,52.2,29.99,SSW,198,0.0,1.0,88,0.00,,,0.00,WUHU216DAVISVP2,2013-05-01 04:26:00,
2013-05-01 00:31:00,55.7,52.2,29.99,SSW,199,0.0,1.0,88,0.00,,,0.00,WUHU216DAVISVP2,2013-05-01 04:31:00,
2013-05-01 00:36:00,55.8,52.3,29.99,SSW,198,0.0,1.0,88,0.00,,,0.00,WUHU216DAVISVP2,2013-05-01 04:36:00,
2013-05-01 00:41:00,55.6,52.1,29.99,ESE,115,1.0,1.0,88,0.00,,,0.00,WUHU216DAVISVP2,2013-05-01 04:41:00,
2013-05-01 00:46:00,56.1,52.6,29.99,SE,139,0.0,2.0,88,0.00,,,0.00,WUHU216DAVISVP2,2013-05-01 04:46:00,
2013-05-01 00:51:00,56.3,52.5,29.99,SE,142,0.0,2.0,87,0.00,,,0.00,WUHU216DAVISVP2,2013-05-01 04:51:00,
2013-05-01 00:56:00,56.1,52.3,30.00,SE,142,0.0,2.0,87,0.00,,,0.00,WUHU216DAVISVP2,2013-05-01 04:56:00,
2013-05-01 01:01:00,55.8,52.3,30.00,SE,142,0.0,2.0,88,0.00,,,0.00,WUHU216DAVISVP2,2013-05-01 05:01:00,
2013-05-01 01:06:00,55.8,52.3,30.00,SSE,159,0.0,1.0,88,0.00,,,0.00,WUHU216DAVISVP2,2013-05-01 05:06:00,
2013-05-01 01:11:00,56.0,52.5,30.00,SSE,160,0.0,1.0,88,0.00,,,0.00,WUHU216DAVISVP2,2013-05-01 05:11:00,
2013-05-01 01:16:00,56.0,52.5,30.00,SSE,155,0.0,1.0,88,0.00,,,0.00,WUHU216DAVISVP2,2013-05-01 05:16:00,
2013-05-01 01:21:00,55.9,52.4,30.00,SSE,155,0.0,1.0,88,0.00,,,0.00,WUHU216DAVISVP2,2013-05-01 05:21:00,
2013-05-01 01:26:00,55.8,52.3,30.00,SSE,155,0.0,1.0,88,0.00,,,0.00,WUHU216DAVISVP2,2013-05-01 05:26:00,
2013-05-01 01:31:00,55.6,52.1,30.00,SSE,157,0.0,1.0,88,0.00,,,0.00,WUHU216DAVISVP2,2013-05-01 05:31:00,
2013-05-01 01:36:00,55.4,52.2,30.00,SSE,155,0.0,0.0,89,0.00,,,0.00,WUHU216DAVISVP2,2013-05-01 05:36:00,
2013-05-01 01:41:00,55.5,52.3,30.00,SSE,155,0.0,0.0,89,0.00,,,0.00,WUHU216DAVISVP2,2013-05-01 05:41:00,
2013-05-01 01:46:00,55.6,52.4,30.00,SSE,155,0.0,0.0,89,0.00,,,0.00,WUHU216DAVISVP2,2013-05-01 05:46:00,
2013-05-01 01:51:00,55.7,52.5,30.00,SSE,155,0.0,0.0,89,0.00,,,0.00,WUHU216DAVISVP2,2013-05-01 05:51:00,
2013-05-01 01:56:00,55.7,52.2,30.00,SSE,155,0.0,0.0,88,0.00,,,0.00,WUHU216DAVISVP2,2013-05-01 05:56:00,
2013-05-01 02:01:00,55.8,52.3,30.00,SSE,155,0.0,0.0,88,0.00,,,0.00,WUHU216DAVISVP2,2013-05-01 06:01:00,
2013-05-01 02:06:00,55.7,52.2,30.00,SSE,155,0.0,0.0,88,0.00,,,0.00,WUHU216DAVISVP2,2013-05-01 06:06:00,
2013-05-01 02:11:00,55.7,52.2,30.00,SSE,155,0.0,0.0,88,0.00,,,0.00,WUHU216DAVISVP2,2013-05-01 06:11:00,
2013-05-01 02:16:00,55.5,52.3,30.00,SSE,155,0.0,0.0,89,0.00,,,0.00,WUHU216DAVISVP2,2013-05-01 06:16:00,
2013-05-01 02:21:00,55.3,52.1,30.00,SSE,155,0.0,0.0,89,0.00,,,0.00,WUHU216DAVISVP2,2013-05-01 06:21:00,
2013-05-01 02:26:00,54.9,52.0,30.00,SSE,155,0.0,0.0,90,0.00,,,0.00,WUHU216DAVISVP2,2013-05-01 06:26:00,
2013-05-01 02:31:00,54.7,51.8,30.00,SSE,155,0.0,0.0,90,0.00,,,0.00,WUHU216DAVISVP2,2013-05-01 06:31:00,
2013-05-01 02:36:00,54.5,51.9,30.00,SSE,155,0.0,0.0,91,0.00,,,0.00,WUHU216DAVISVP2,2013-05-01 06:36:00,
2013-05-01 02:41:00,54.2,51.6,30.00,SSE,155,0.0,0.0,91,0.00,,,0.00,WUHU216DAVISVP2,2013-05-01 06:41:00,
2013-05-01 02:46:00,54.0,51.4,30.00,SSE,155,0.0,0.0,91,0.00,,,0.00,WUHU216DAVISVP2,2013-05-01 06:46:00,
2013-05-01 02:51:00,53.7,51.4,30.00,SSE,155,0.0,0.0,92,0.00,,,0.00,WUHU216DAVISVP2,2013-05-01 06:51:00,
2013-05-01 02:56:00,53.3,51.0,30.00,SSE,155,0.0,0.0,92,0.00,,,0.00,WUHU216DAVISVP2,2013-05-01 06:56:00,
2013-05-01 03:01:00,53.0,51.0,30.00,SSE,155,0.0,0.0,93,0.00,,,0.00,WUHU216DAVISVP2,2013-05-01 07:01:00,
2013-05-01 03:06:00,53.1,51.4,30.01,SSE,156,0.0,0.0,94,0.00,,,0.00,WUHU216DAVISVP2,2013-05-01 07:06:00,
2013-05-01 03:11:00,53.2,51.5,30.01,SSE,155,0.0,0.0,94,0.00,,,0.00,WUHU216DAVISVP2,2013-05-01 07:11:00,
2013-05-01 03:16:00,53.2,51.5,30.01,SSE,155,0.0,0.0,94,0.00,,,0.00,WUHU216DAVISVP2,2013-05-01 07:16:00,
2013-05-01 03:21:00,53.2,51.5,30.01,SSE,155,0.0,0.0,94,0.00,,,0.00,WUHU216DAVISVP2,2013-05-01 07:21:00,
2013-05-01 03:26:00,53.2,51.2,30.01,SSE,155,0.0,0.0,93,0.00,,,0.00,WUHU216DAVISVP2,2013-05-01 07:26:00,
2013-05-01 03:31:00,53.2,51.5,30.01,SSE,155,0.0,0.0,94,0.00,,,0.00,WUHU216DAVISVP2,2013-05-01 07:31:00,
2013-05-01 03:36:00,53.4,51.7,30.01,SSE,155,0.0,0.0,94,0.00,,,0.00,WUHU216DAVISVP2,2013-05-01 07:36:00,
2013-05-01 03:41:00,53.5,51.5,30.01,SSE,157,0.0,0.0,93,0.00,,,0.00,WUHU216DAVISVP2,2013-05-01 07:41:00,
2013-05-01 03:46:00,53.4,51.4,30.02,SSE,155,0.0,0.0,93,0.00,,,0.00,WUHU216DAVISVP2,2013-05-01 07:46:00,
2013-05-01 03:51:00,53.4,51.4,30.02,SSE,152,0.0,1.0,93,0.00,,,0.00,WUHU216DAVISVP2,2013-05-01 07:51:00,
2013-05-01 03:56:00,53.5,51.5,30.02,SSE,153,0.0,1.0,93,0.00,,,0.00,WUHU216DAVISVP2,2013-05-01 07:56:00,
2013-05-01 04:01:00,53.5,51.5,30.02,SSE,153,0.0,1.0,93,0.00,,,0.00,WUHU216DAVISVP2,2013-05-01 08:01:00,
2013-05-01 04:06:00,53.4,51.4,30.02,SSE,153,0.0,1.0,93,0.00,,,0.00,WUHU216DAVISVP2,2013-05-01 08:06:00,
2013-05-01 04:11:00,53.0,50.7,30.02,SSE,152,0.0,0.0,92,0.00,,,0.00,WUHU216DAVISVP2,2013-05-01 08:11:00,
2013-05-01 04:16:00,52.7,50.7,30.02,SSE,153,0.0,0.0,93,0.00,,,0.00,WUHU216DAVISVP2,2013-05-01 08:16:00,
2013-05-01 04:21:00,52.4,50.7,30.03,SSE,153,0.0,0.0,94,0.00,,,0.00,WUHU216DAVISVP2,2013-05-01 08:21:00,
2013-05-01 04:26:00,52.1,50.4,30.02,SSE,153,0.0,0.0,94,0.00,,,0.00,WUHU216DAVISVP2,2013-05-01 08:26:00,
2013-05-01 04:31:00,52.1,50.7,30.03,SSE,153,0.0,0.0,95,0.00,,,0.00,WUHU216DAVISVP2,2013-05-01 08:31:00,
2013-05-01 04:36:00,52.1,50.7,30.03,SSE,153,0.0,0.0,95,0.00,,,0.00,WUHU216DAVISVP2,2013-05-01 08:36:00,
2013-05-01 04:41:00,52.0,50.6,30.03,SSE,152,0.0,0.0,95,0.00,,,0.00,WUHU216DAVISVP2,2013-05-01 08:41:00,
2013-05-01 04:46:00,52.1,51.0,30.03,SSE,153,0.0,0.0,96,0.00,,,0.00,WUHU216DAVISVP2,2013-05-01 08:46:00,
2013-05-01 04:51:00,52.1,51.0,30.03,SSE,153,0.0,0.0,96,0.00,,,0.00,WUHU216DAVISVP2,2013-05-01 08:51:00,
2013-05-01 04:56:00,52.2,51.1,30.03,SSE,152,0.0,0.0,96,0.00,,,0.00,WUHU216DAVISVP2,2013-05-01 08:56:00,
2013-05-01 05:01:00,52.3,51.2,30.03,SSE,153,0.0,0.0,96,0.00,,,0.00,WUHU216DAVISVP2,2013-05-01 09:01:00,
2013-05-01 05:06:00,52.3,50.9,30.03,SSE,153,0.0,0.0,95,0.00,,,0.00,WUHU216DAVISVP2,2013-05-01 09:06:00,
2013-05-01 05:11:00,52.2,50.8,30.03,SSE,153,0.0,0.0,95,0.00,,,0.00,WUHU216DAVISVP2,2013-05-01 09:11:00,
2013-05-01 05:16:00,52.2,50.8,30.04,SSE,153,0.0,0.0,95,0.00,,,0.00,WUHU216DAVISVP2,2013-05-01 09:16:00,
2013-05-01 05:21:00,52.4,51.0,30.03,SE,127,1.0,1.0,95,0.00,,,0.00,WUHU216DAVISVP2,2013-05-01 09:21:00,
2013-05-01 05:26:00,52.6,51.2,30.03,SE,125,1.0,2.0,95,0.00,,,0.00,WUHU216DAVISVP2,2013-05-01 09:26:00,
2013-05-01 05:31:00,52.8,51.1,30.04,SE,125,2.0,2.0,94,0.00,,,0.00,WUHU216DAVISVP2,2013-05-01 09:31:00,
2013-05-01 05:36:00,52.9,51.2,30.04,SE,128,1.0,2.0,94,0.00,,,0.00,WUHU216DAVISVP2,2013-05-01 09:36:00,
2013-05-01 05:41:00,52.8,51.1,30.04,SE,127,1.0,2.0,94,0.00,,,0.00,WUHU216DAVISVP2,2013-05-01 09:41:00,
2013-05-01 05:46:00,52.7,51.0,30.04,SE,127,0.0,2.0,94,0.00,,,0.00,WUHU216DAVISVP2,2013-05-01 09:46:00,
2013-05-01 05:51:00,52.6,50.9,30.05,SE,127,0.0,2.0,94,0.00,,,0.00,WUHU216DAVISVP2,2013-05-01 09:51:00,
2013-05-01 05:56:00,52.4,50.7,30.05,SE,127,0.0,1.0,94,0.00,,,0.00,WUHU216DAVISVP2,2013-05-01 09:56:00,
2013-05-01 06:01:00,52.1,50.4,30.05,SE,127,0.0,1.0,94,0.00,,,0.00,WUHU216DAVISVP2,2013-05-01 10:01:00,
2013-05-01 06:06:00,51.7,50.0,30.06,SE,127,0.0,0.0,94,0.00,,,0.00,WUHU216DAVISVP2,2013-05-01 10:06:00,
2013-05-01 06:11:00,51.4,50.0,30.06,North,1,1.0,1.0,95,0.00,,,0.00,WUHU216DAVISVP2,2013-05-01 10:11:00,
2013-05-01 06:16:00,51.3,49.9,30.06,North,359,0.0,1.0,95,0.00,,,0.00,WUHU216DAVISVP2,2013-05-01 10:16:00,
2013-05-01 06:21:00,51.4,50.3,30.06,North,359,0.0,1.0,96,0.00,,,0.00,WUHU216DAVISVP2,2013-05-01 10:21:00,
2013-05-01 06:26:00,51.5,50.4,30.07,North,359,0.0,1.0,96,0.00,,,0.00,WUHU216DAVISVP2,2013-05-01 10:26:00,
2013-05-01 06:31:00,51.5,50.4,30.07,North,359,0.0,1.0,96,0.00,,,0.00,WUHU216DAVISVP2,2013-05-01 10:31:00,
2013-05-01 06:36:00,51.4,50.3,30.07,North,359,0.0,1.0,96,0.00,,,0.00,WUHU216DAVISVP2,2013-05-01 10:36:00,
2013-05-01 06:41:00,51.4,50.3,30.08,North,358,0.0,0.0,96,0.00,,,0.00,WUHU216DAVISVP2,2013-05-01 10:41:00,
2013-05-01 06:46:00,51.4,50.3,30.08,North,358,0.0,0.0,96,0.00,,,0.00,WUHU216DAVISVP2,2013-05-01 10:46:00,
2013-05-01 06:51:00,51.7,50.9,30.08,North,359,0.0,0.0,97,0.00,,,0.00,WUHU216DAVISVP2,2013-05-01 10:51:00,
2013-05-01 06:56:00,52.1,51.0,30.08,North,358,0.0,0.0,96,0.00,,,0.00,WUHU216DAVISVP2,2013-05-01 10:56:00,
2013-05-01 07:01:00,52.2,50.5,30.08,North,359,0.0,0.0,94,0.00,,,0.00,WUHU216DAVISVP2,2013-05-01 11:01:00,
2013-05-01 07:06:00,51.8,50.1,30.09,North,1,0.0,0.0,94,0.00,,,0.00,WUHU216DAVISVP2,2013-05-01 11:06:00,
2013-05-01 07:11:00,52.1,50.7,30.09,North,1,0.0,0.0,95,0.00,,,0.00,WUHU216DAVISVP2,2013-05-01 11:11:00,
2013-05-01 07:16:00,52.5,51.1,30.09,North,1,0.0,0.0,95,0.00,,,0.00,WUHU216DAVISVP2,2013-05-01 11:16:00,
2013-05-01 07:21:00,53.0,51.3,30.10,North,1,0.0,0.0,94,0.00,,,0.00,WUHU216DAVISVP2,2013-05-01 11:21:00,
2013-05-01 07:26:00,53.6,51.6,30.10,North,1,0.0,0.0,93,0.00,,,0.00,WUHU216DAVISVP2,2013-05-01 11:26:00,
2013-05-01 07:31:00,53.8,51.5,30.10,North,1,0.0,0.0,92,0.00,,,0.00,WUHU216DAVISVP2,2013-05-01 11:31:00,
2013-05-01 07:36:00,54.3,52.0,30.10,SE,127,0.0,1.0,92,0.00,,,0.00,WUHU216DAVISVP2,2013-05-01 11:36:00,
2013-05-01 07:41:00,54.7,52.1,30.11,ESE,123,0.0,1.0,91,0.00,,,0.00,WUHU216DAVISVP2,2013-05-01 11:41:00,
2013-05-01 07:46:00,55.2,52.3,30.11,ESE,111,0.0,1.0,90,0.00,,,0.00,WUHU216DAVISVP2,2013-05-01 11:46:00,
2013-05-01 07:51:00,55.6,52.7,30.11,ESE,113,1.0,2.0,90,0.00,,,0.00,WUHU216DAVISVP2,2013-05-01 11:51:00,
2013-05-01 07:56:00,55.9,52.7,30.11,ESE,102,1.0,2.0,89,0.00,,,0.00,WUHU216DAVISVP2,2013-05-01 11:56:00,
2013-05-01 08:01:00,56.3,53.1,30.11,ESE,120,0.0,2.0,89,0.00,,,0.00,WUHU216DAVISVP2,2013-05-01 12:01:00,
2013-05-01 08:06:00,56.8,53.3,30.11,ESE,116,1.0,2.0,88,0.00,,,0.00,WUHU216DAVISVP2,2013-05-01 12:06:00,
2013-05-01 08:11:00,57.3,53.5,30.11,East,90,1.0,2.0,87,0.00,,,0.00,WUHU216DAVISVP2,2013-05-01 12:11:00,
2013-05-01 08:16:00,57.9,53.7,30.12,ESE,104,1.0,2.0,86,0.00,,,0.00,WUHU216DAVISVP2,2013-05-01 12:16:00,
2013-05-01 08:21:00,58.5,54.0,30.12,SE,127,1.0,3.0,85,0.00,,,0.00,WUHU216DAVISVP2,2013-05-01 12:21:00,
2013-05-01 08:26:00,59.2,54.1,30.12,ESE,120,2.0,4.0,83,0.00,,,0.00,WUHU216DAVISVP2,2013-05-01 12:26:00,
2013-05-01 08:31:00,59.7,54.6,30.12,SSW,200,2.0,5.0,83,0.00,,,0.00,WUHU216DAVISVP2,2013-05-01 12:31:00,
2013-05-01 08:36:00,59.9,54.1,30.12,SSE,153,1.0,5.0,81,0.00,,,0.00,WUHU216DAVISVP2,2013-05-01 12:36:00,
2013-05-01 08:41:00,60.4,53.9,30.12,SSE,165,1.0,5.0,79,0.00,,,0.00,WUHU216DAVISVP2,2013-05-01 12:41:00,
2013-05-01 08:46:00,60.7,54.6,30.12,SSE,149,0.0,5.0,80,0.00,,,0.00,WUHU216DAVISVP2,2013-05-01 12:46:00,
2013-05-01 08:51:00,61.3,55.1,30.12,SE,126,2.0,5.0,80,0.00,,,0.00,WUHU216DAVISVP2,2013-05-01 12:51:00,
2013-05-01 08:56:00,61.6,54.8,30.12,ESE,112,4.0,6.0,78,0.00,,,0.00,WUHU216DAVISVP2,2013-05-01 12:56:00,
2013-05-01 09:01:00,61.9,54.7,30.12,ESE,121,3.0,7.0,77,0.00,,,0.00,WUHU216DAVISVP2,2013-05-01 13:01:00,
2013-05-01 09:06:00,62.0,54.8,30.13,SSE,150,2.0,7.0,77,0.00,,,0.00,WUHU216DAVISVP2,2013-05-01 13:06:00,
2013-05-01 09:11:00,62.1,54.5,30.12,SE,134,2.0,6.0,76,0.00,,,0.00,WUHU216DAVISVP2,2013-05-01 13:11:00,
2013-05-01 09:16:00,62.5,54.6,30.12,South,187,3.0,6.0,75,0.00,,,0.00,WUHU216DAVISVP2,2013-05-01 13:16:00,
2013-05-01 09:21:00,63.0,55.1,30.12,ESE,122,4.0,6.0,75,0.00,,,0.00,WUHU216DAVISVP2,2013-05-01 13:21:00,
2013-05-01 09:26:00,63.3,55.4,30.12,SSE,158,6.0,7.0,75,0.00,,,0.00,WUHU216DAVISVP2,2013-05-01 13:26:00,
2013-05-01 09:31:00,63.9,55.6,30.12,SW,226,2.0,7.0,74,0.00,,,0.00,WUHU216DAVISVP2,2013-05-01 13:31:00,
2013-05-01 09:36:00,64.5,55.4,30.13,SE,135,1.0,7.0,72,0.00,,,0.00,WUHU216DAVISVP2,2013-05-01 13:36:00,
2013-05-01 09:41:00,64.7,54.8,30.13,SE,124,4.0,7.0,70,0.00,,,0.00,WUHU216DAVISVP2,2013-05-01 13:41:00,
2013-05-01 09:46:00,65.1,55.2,30.13,ESE,116,3.0,6.0,70,0.00,,,0.00,WUHU216DAVISVP2,2013-05-01 13:46:00,
2013-05-01 09:51:00,65.5,55.6,30.13,South,172,3.0,6.0,70,0.00,,,0.00,WUHU216DAVISVP2,2013-05-01 13:51:00,
2013-05-01 09:56:00,66.0,56.1,30.13,ESE,120,1.0,6.0,70,0.00,,,0.00,WUHU216DAVISVP2,2013-05-01 13:56:00,
2013-05-01 10:01:00,66.5,55.2,30.13,SSE,149,3.0,6.0,67,0.00,,,0.00,WUHU216DAVISVP2,2013-05-01 14:01:00,
2013-05-01 10:06:00,67.2,56.9,30.13,SSE,164,2.0,6.0,69,0.00,,,0.00,WUHU216DAVISVP2,2013-05-01 14:06:00,
2013-05-01 10:12:00,67.5,56.3,30.13,SSE,160,4.0,6.0,67,0.00,,,0.00,WUHU216DAVISVP2,2013-05-01 14:12:00,
2013-05-01 10:17:00,67.8,56.2,30.13,SE,127,2.0,6.0,66,0.00,,,0.00,WUHU216DAVISVP2,2013-05-01 14:17:00,
2013-05-01 10:22:00,68.2,56.2,30.13,SSE,162,2.0,5.0,65,0.00,,,0.00,WUHU216DAVISVP2,2013-05-01 14:22:00,
2013-05-01 10:26:00,68.7,56.0,30.13,SSW,212,1.0,5.0,64,0.00,,,0.00,WUHU216DAVISVP2,2013-05-01 14:26:00,
2013-05-01 10:32:00,69.2,56.3,30.13,WSW,252,0.0,5.0,63,0.00,,,0.00,WUHU216DAVISVP2,2013-05-01 14:32:00,
2013-05-01 10:37:00,69.4,56.4,30.13,SE,127,2.0,6.0,63,0.00,,,0.00,WUHU216DAVISVP2,2013-05-01 14:37:00,
2013-05-01 10:42:00,69.4,56.4,30.13,ESE,110,3.0,6.0,63,0.00,,,0.00,WUHU216DAVISVP2,2013-05-01 14:42:00,
2013-05-01 10:47:00,69.8,57.7,30.13,East,84,3.0,6.0,65,0.00,,,0.00,WUHU216DAVISVP2,2013-05-01 14:47:00,
2013-05-01 10:52:00,70.5,57.0,30.13,SE,139,1.0,5.0,62,0.00,,,0.00,WUHU216DAVISVP2,2013-05-01 14:52:00,
2013-05-01 10:57:00,70.9,57.0,30.13,ESE,119,5.0,6.0,61,0.00,,,0.00,WUHU216DAVISVP2,2013-05-01 14:57:00,
2013-05-01 11:02:00,71.1,56.7,30.13,SSE,158,1.0,6.0,60,0.00,,,0.00,WUHU216DAVISVP2,2013-05-01 15:02:00,
2013-05-01 11:07:00,72.0,57.5,30.13,SSW,209,1.0,6.0,60,0.00,,,0.00,WUHU216DAVISVP2,2013-05-01 15:07:00,
2013-05-01 11:12:00,72.3,56.9,30.13,SSE,160,5.0,6.0,58,0.00,,,0.00,WUHU216DAVISVP2,2013-05-01 15:12:00,
2013-05-01 11:17:00,72.4,57.0,30.13,East,95,3.0,7.0,58,0.00,,,0.00,WUHU216DAVISVP2,2013-05-01 15:17:00,
2013-05-01 11:22:00,72.3,56.4,30.13,SSW,205,3.0,7.0,57,0.00,,,0.00,WUHU216DAVISVP2,2013-05-01 15:22:00,
2013-05-01 11:27:00,72.8,56.8,30.13,ESE,122,3.0,7.0,57,0.00,,,0.00,WUHU216DAVISVP2,2013-05-01 15:27:00,
2013-05-01 11:32:00,73.3,57.3,30.13,SSE,152,2.0,7.0,57,0.00,,,0.00,WUHU216DAVISVP2,2013-05-01 15:32:00,
2013-05-01 11:37:00,73.2,57.2,30.13,East,91,2.0,7.0,57,0.00,,,0.00,WUHU216DAVISVP2,2013-05-01 15:37:00,
2013-05-01 11:42:00,73.9,58.2,30.13,East,86,2.0,7.0,58,0.00,,,0.00,WUHU216DAVISVP2,2013-05-01 15:42:00,
2013-05-01 11:47:00,73.9,57.2,30.13,East,96,2.0,7.0,56,0.00,,,0.00,WUHU216DAVISVP2,2013-05-01 15:47:00,
2013-05-01 11:52:00,74.0,58.3,30.13,East,84,2.0,6.0,58,0.00,,,0.00,WUHU216DAVISVP2,2013-05-01 15:52:00,
2013-05-01 11:57:00,74.4,58.4,30.13,ESE,102,1.0,6.0,57,0.00,,,0.00,WUHU216DAVISVP2,2013-05-01 15:57:00,
2013-05-01 12:02:00,74.8,58.7,30.13,ESE,103,1.0,5.0,57,0.00,,,0.00,WUHU216DAVISVP2,2013-05-01 16:02:00,
2013-05-01 12:07:00,75.0,57.9,30.13,SE,126,2.0,5.0,55,0.00,,,0.00,WUHU216DAVISVP2,2013-05-01 16:07:00,
2013-05-01 12:12:00,75.0,57.4,30.13,SE,125,1.0,6.0,54,0.00,,,0.00,WUHU216DAVISVP2,2013-05-01 16:12:00,
2013-05-01 12:17:00,75.6,57.4,30.13,SSE,148,3.0,6.0,53,0.00,,,0.00,WUHU216DAVISVP2,2013-05-01 16:17:00,
2013-05-01 12:22:00,75.3,57.7,30.13,NE,44,3.0,6.0,54,0.00,,,0.00,WUHU216DAVISVP2,2013-05-01 16:22:00,
2013-05-01 12:27:00,75.4,57.2,30.12,SE,132,0.0,6.0,53,0.00,,,0.00,WUHU216DAVISVP2,2013-05-01 16:27:00,
2013-05-01 12:32:00,76.1,57.9,30.12,SE,132,2.0,6.0,53,0.00,,,0.00,WUHU216DAVISVP2,2013-05-01 16:32:00,
2013-05-01 12:37:00,76.0,57.8,30.12,NE,49,2.0,6.0,53,0.00,,,0.00,WUHU216DAVISVP2,2013-05-01 16:37:00,
2013-05-01 12:42:00,76.6,58.7,30.12,ESE,117,3.0,6.0,54,0.00,,,0.00,WUHU216DAVISVP2,2013-05-01 16:42:00,
2013-05-01 12:47:00,76.9,57.4,30.12,SSE,166,1.0,7.0,51,0.00,,,0.00,WUHU216DAVISVP2,2013-05-01 16:47:00,
2013-05-01 12:52:00,76.7,56.2,30.13,SE,130,2.0,9.0,49,0.00,,,0.00,WUHU216DAVISVP2,2013-05-01 16:52:00,
2013-05-01 12:57:00,76.8,58.0,30.12,East,86,3.0,9.0,52,0.00,,,0.00,WUHU216DAVISVP2,2013-05-01 16:57:00,
2013-05-01 13:02:00,77.3,57.3,30.12,SW,228,6.0,9.0,50,0.00,,,0.00,WUHU216DAVISVP2,2013-05-01 17:02:00,
2013-05-01 13:07:00,77.4,56.2,30.12,East,101,2.0,9.0,48,0.00,,,0.00,WUHU216DAVISVP2,2013-05-01 17:07:00,
2013-05-01 13:12:00,77.2,56.6,30.12,South,191,3.0,8.0,49,0.00,,,0.00,WUHU216DAVISVP2,2013-05-01 17:12:00,
2013-05-01 13:17:00,77.7,56.5,30.12,SE,143,4.0,8.0,48,0.00,,,0.00,WUHU216DAVISVP2,2013-05-01 17:17:00,
2013-05-01 13:22:00,78.3,57.1,30.12,SSE,167,5.0,6.0,48,0.00,,,0.00,WUHU216DAVISVP2,2013-05-01 17:22:00,
2013-05-01 13:27:00,78.9,55.8,30.11,ESE,104,4.0,6.0,45,0.00,,,0.00,WUHU216DAVISVP2,2013-05-01 17:27:00,
2013-05-01 13:32:00,78.9,56.4,30.11,SE,124,5.0,6.0,46,0.00,,,0.00,WUHU216DAVISVP2,2013-05-01 17:32:00,
2013-05-01 13:37:00,78.5,56.0,30.11,SE,138,3.0,7.0,46,0.00,,,0.00,WUHU216DAVISVP2,2013-05-01 17:37:00,
2013-05-01 13:42:00,78.6,55.5,30.11,SSW,212,5.0,8.0,45,0.00,,,0.00,WUHU216DAVISVP2,2013-05-01 17:42:00,
2013-05-01 13:47:00,79.0,55.9,30.11,West,266,6.0,13.0,45,0.00,,,0.00,WUHU216DAVISVP2,2013-05-01 17:47:00,
2013-05-01 13:52:00,78.7,56.8,30.11,ESE,121,3.0,13.0,47,0.00,,,0.00,WUHU216DAVISVP2,2013-05-01 17:52:00,
2013-05-01 13:57:00,78.6,56.1,30.12,SE,140,3.0,13.0,46,0.00,,,0.00,WUHU216DAVISVP2,2013-05-01 17:57:00,
2013-05-01 14:02:00,78.4,55.3,30.12,SE,124,5.0,12.0,45,0.00,,,0.00,WUHU216DAVISVP2,2013-05-01 18:02:00,
2013-05-01 14:07:00,78.6,57.3,30.12,ESE,109,8.0,11.0,48,0.00,,,0.00,WUHU216DAVISVP2,2013-05-01 18:07:00,
2013-05-01 14:12:00,78.9,56.4,30.12,WSW,255,3.0,11.0,46,0.00,,,0.00,WUHU216DAVISVP2,2013-05-01 18:12:00,
2013-05-01 14:17:00,78.9,54.5,30.12,ESE,120,4.0,12.0,43,0.00,,,0.00,WUHU216DAVISVP2,2013-05-01 18:17:00,
2013-05-01 14:22:00,78.5,55.4,30.11,ESE,122,5.0,12.0,45,0.00,,,0.00,WUHU216DAVISVP2,2013-05-01 18:22:00,
2013-05-01 14:27:00,78.7,56.8,30.11,East,95,2.0,11.0,47,0.00,,,0.00,WUHU216DAVISVP2,2013-05-01 18:27:00,
2013-05-01 14:32:00,78.8,55.7,30.11,ESE,116,6.0,11.0,45,0.00,,,0.00,WUHU216DAVISVP2,2013-05-01 18:32:00,
2013-05-01 14:37:00,79.0,56.5,30.11,East,96,4.0,10.0,46,0.00,,,0.00,WUHU216DAVISVP2,2013-05-01 18:37:00,
2013-05-01 14:42:00,79.4,56.2,30.11,SW,231,1.0,10.0,45,0.00,,,0.00,WUHU216DAVISVP2,2013-05-01 18:42:00,
2013-05-01 14:47:00,79.2,56.7,30.12,SSE,148,4.0,10.0,46,0.00,,,0.00,WUHU216DAVISVP2,2013-05-01 18:47:00,
2013-05-01 14:52:00,78.9,55.1,30.11,SE,128,6.0,11.0,44,0.00,,,0.00,WUHU216DAVISVP2,2013-05-01 18:52:00,
2013-05-01 14:57:00,78.9,55.8,30.11,ESE,102,2.0,11.0,45,0.00,,,0.00,WUHU216DAVISVP2,2013-05-01 18:57:00,
2013-05-01 15:02:00,78.8,55.0,30.11,SE,131,3.0,11.0,44,0.00,,,0.00,WUHU216DAVISVP2,2013-05-01 19:02:00,
2013-05-01 15:07:00,78.7,54.9,30.11,ESE,118,3.0,11.0,44,0.00,,,0.00,WUHU216DAVISVP2,2013-05-01 19:07:00,
2013-05-01 15:12:00,78.9,55.8,30.11,ESE,122,5.0,9.0,45,0.00,,,0.00,WUHU216DAVISVP2,2013-05-01 19:12:00,
2013-05-01 15:17:00,78.8,55.0,30.11,ESE,105,3.0,9.0,44,0.00,,,0.00,WUHU216DAVISVP2,2013-05-01 19:17:00,
2013-05-01 15:22:00,79.2,55.4,30.11,SE,136,1.0,9.0,44,0.00,,,0.00,WUHU216DAVISVP2,2013-05-01 19:22:00,
2013-05-01 15:27:00,79.2,55.4,30.11,SE,138,4.0,10.0,44,0.00,,,0.00,WUHU216DAVISVP2,2013-05-01 19:27:00,
2013-05-01 15:32:00,78.9,55.1,30.11,East,95,6.0,10.0,44,0.00,,,0.00,WUHU216DAVISVP2,2013-05-01 19:32:00,
2013-05-01 15:37:00,79.2,55.4,30.11,SE,131,6.0,10.0,44,0.00,,,0.00,WUHU216DAVISVP2,2013-05-01 19:37:00,
2013-05-01 15:42:00,79.1,54.7,30.11,SE,125,4.0,10.0,43,0.00,,,0.00,WUHU216DAVISVP2,2013-05-01 19:42:00,
2013-05-01 15:47:00,78.9,54.5,30.11,ESE,120,2.0,11.0,43,0.00,,,0.00,WUHU216DAVISVP2,2013-05-01 19:47:00,
2013-05-01 15:52:00,79.3,54.8,30.11,ESE,102,5.0,11.0,43,0.00,,,0.00,WUHU216DAVISVP2,2013-05-01 19:52:00,
2013-05-01 15:57:00,79.1,54.7,30.11,ESE,108,7.0,12.0,43,0.00,,,0.00,WUHU216DAVISVP2,2013-05-01 19:57:00,
2013-05-01 16:02:00,79.2,55.4,30.11,South,176,4.0,12.0,44,0.00,,,0.00,WUHU216DAVISVP2,2013-05-01 20:02:00,
2013-05-01 16:07:00,79.2,54.1,30.11,SE,139,3.0,12.0,42,0.00,,,0.00,WUHU216DAVISVP2,2013-05-01 20:07:00,
2013-05-01 16:12:00,79.1,54.7,30.11,SSE,150,2.0,12.0,43,0.00,,,0.00,WUHU216DAVISVP2,2013-05-01 20:12:00,
2013-05-01 16:17:00,79.0,53.9,30.11,SE,139,6.0,11.0,42,0.00,,,0.00,WUHU216DAVISVP2,2013-05-01 20:17:00,
2013-05-01 16:22:00,79.2,54.8,30.11,East,101,7.0,11.0,43,0.00,,,0.00,WUHU216DAVISVP2,2013-05-01 20:22:00,
2013-05-01 16:27:00,79.3,54.2,30.11,SSE,165,2.0,9.0,42,0.00,,,0.00,WUHU216DAVISVP2,2013-05-01 20:27:00,
2013-05-01 16:32:00,79.1,54.7,30.11,SSW,205,8.0,9.0,43,0.00,,,0.00,WUHU216DAVISVP2,2013-05-01 20:32:00,
2013-05-01 16:37:00,78.8,54.4,30.11,SSE,148,4.0,11.0,43,0.00,,,0.00,WUHU216DAVISVP2,2013-05-01 20:37:00,
2013-05-01 16:42:00,78.8,54.4,30.11,ESE,117,6.0,11.0,43,0.00,,,0.00,WUHU216DAVISVP2,2013-05-01 20:42:00,
2013-05-01 16:47:00,79.0,55.2,30.11,South,188,6.0,10.0,44,0.00,,,0.00,WUHU216DAVISVP2,2013-05-01 20:47:00,
2013-05-01 16:52:00,79.1,54.0,30.11,SE,130,6.0,10.0,42,0.00,,,0.00,WUHU216DAVISVP2,2013-05-01 20:52:00,
2013-05-01 16:57:00,79.2,54.1,30.11,SSE,153,5.0,9.0,42,0.00,,,0.00,WUHU216DAVISVP2,2013-05-01 20:57:00,
2013-05-01 17:02:00,79.0,53.9,30.11,East,101,4.0,11.0,42,0.00,,,0.00,WUHU216DAVISVP2,2013-05-01 21:02:00,
2013-05-01 17:07:00,79.0,53.9,30.11,SSE,155,8.0,11.0,42,0.00,,,0.00,WUHU216DAVISVP2,2013-05-01 21:07:00,
2013-05-01 17:12:00,78.8,55.0,30.11,SE,134,2.0,10.0,44,0.00,,,0.00,WUHU216DAVISVP2,2013-05-01 21:12:00,
2013-05-01 17:17:00,78.9,53.8,30.11,SSE,165,5.0,11.0,42,0.00,,,0.00,WUHU216DAVISVP2,2013-05-01 21:17:00,
2013-05-01 17:22:00,79.2,55.4,30.11,SE,140,3.0,11.0,44,0.00,,,0.00,WUHU216DAVISVP2,2013-05-01 21:22:00,
2013-05-01 17:27:00,79.2,53.4,30.11,ESE,111,6.0,11.0,41,0.00,,,0.00,WUHU216DAVISVP2,2013-05-01 21:27:00,
2013-05-01 17:32:00,79.1,53.3,30.11,SSW,211,5.0,10.0,41,0.00,,,0.00,WUHU216DAVISVP2,2013-05-01 21:32:00,
2013-05-01 17:37:00,79.2,54.1,30.11,SSW,197,7.0,9.0,42,0.00,,,0.00,WUHU216DAVISVP2,2013-05-01 21:37:00,
2013-05-01 17:42:00,79.1,54.0,30.11,SE,124,4.0,10.0,42,0.00,,,0.00,WUHU216DAVISVP2,2013-05-01 21:42:00,
2013-05-01 17:47:00,79.1,54.0,30.11,ENE,76,5.0,12.0,42,0.00,,,0.00,WUHU216DAVISVP2,2013-05-01 21:47:00,
2013-05-01 17:52:00,79.0,53.2,30.11,South,188,2.0,12.0,41,0.00,,,0.00,WUHU216DAVISVP2,2013-05-01 21:52:00,
2013-05-01 17:57:00,78.9,53.1,30.11,SE,137,5.0,11.0,41,0.00,,,0.00,WUHU216DAVISVP2,2013-05-01 21:57:00,
2013-05-01 18:02:00,78.8,53.0,30.12,SE,127,6.0,11.0,41,0.00,,,0.00,WUHU216DAVISVP2,2013-05-01 22:02:00,
2013-05-01 18:07:00,78.6,53.6,30.11,SSE,160,3.0,8.0,42,0.00,,,0.00,WUHU216DAVISVP2,2013-05-01 22:07:00,
2013-05-01 18:12:00,78.8,53.7,30.11,SSW,194,2.0,8.0,42,0.00,,,0.00,WUHU216DAVISVP2,2013-05-01 22:12:00,
2013-05-01 18:17:00,78.7,54.3,30.12,South,171,3.0,9.0,43,0.00,,,0.00,WUHU216DAVISVP2,2013-05-01 22:17:00,
2013-05-01 18:22:00,78.8,53.7,30.11,SE,145,4.0,9.0,42,0.00,,,0.00,WUHU216DAVISVP2,2013-05-01 22:22:00,
2013-05-01 18:27:00,78.6,52.9,30.11,South,179,3.0,9.0,41,0.00,,,0.00,WUHU216DAVISVP2,2013-05-01 22:27:00,
2013-05-01 18:32:00,78.4,53.4,30.11,SW,232,5.0,8.0,42,0.00,,,0.00,WUHU216DAVISVP2,2013-05-01 22:32:00,
2013-05-01 18:37:00,78.4,53.4,30.11,SE,127,5.0,10.0,42,0.00,,,0.00,WUHU216DAVISVP2,2013-05-01 22:37:00,
2013-05-01 18:42:00,78.3,53.3,30.11,SE,137,2.0,10.0,42,0.00,,,0.00,WUHU216DAVISVP2,2013-05-01 22:42:00,
2013-05-01 18:47:00,78.3,53.3,30.11,SE,129,3.0,9.0,42,0.00,,,0.00,WUHU216DAVISVP2,2013-05-01 22:47:00,
2013-05-01 18:52:00,77.9,52.9,30.11,SSE,153,7.0,9.0,42,0.00,,,0.00,WUHU216DAVISVP2,2013-05-01 22:52:00,
2013-05-01 18:57:00,77.6,52.6,30.11,SE,128,3.0,8.0,42,0.00,,,0.00,WUHU216DAVISVP2,2013-05-01 22:57:00,
2013-05-01 19:02:00,77.3,53.7,30.11,ESE,121,1.0,8.0,44,0.00,,,0.00,WUHU216DAVISVP2,2013-05-01 23:02:00,
2013-05-01 19:07:00,77.2,52.3,30.11,SE,129,4.0,8.0,42,0.00,,,0.00,WUHU216DAVISVP2,2013-05-01 23:07:00,
2013-05-01 19:12:00,77.0,52.8,30.11,ESE,120,6.0,9.0,43,0.00,,,0.00,WUHU216DAVISVP2,2013-05-01 23:12:00,
2013-05-01 19:17:00,77.0,52.8,30.11,SE,141,2.0,9.0,43,0.00,,,0.00,WUHU216DAVISVP2,2013-05-01 23:17:00,
2013-05-01 19:22:00,76.9,52.0,30.11,ESE,120,5.0,8.0,42,0.00,,,0.00,WUHU216DAVISVP2,2013-05-01 23:22:00,
2013-05-01 19:27:00,76.8,52.6,30.11,ESE,117,4.0,8.0,43,0.00,,,0.00,WUHU216DAVISVP2,2013-05-01 23:27:00,
2013-05-01 19:32:00,76.5,52.3,30.11,ESE,117,2.0,8.0,43,0.00,,,0.00,WUHU216DAVISVP2,2013-05-01 23:32:00,
2013-05-01 19:37:00,76.3,52.8,30.10,ESE,105,3.0,7.0,44,0.00,,,0.00,WUHU216DAVISVP2,2013-05-01 23:37:00,
2013-05-01 19:42:00,76.0,51.8,30.10,East,101,4.0,6.0,43,0.00,,,0.00,WUHU216DAVISVP2,2013-05-01 23:42:00,
2013-05-01 19:47:00,75.9,51.8,30.10,SE,136,2.0,5.0,43,0.00,,,0.00,WUHU216DAVISVP2,2013-05-01 23:47:00,
2013-05-01 19:52:00,75.7,52.8,30.10,ESE,119,1.0,5.0,45,0.00,,,0.00,WUHU216DAVISVP2,2013-05-01 23:52:00,
2013-05-01 19:57:00,75.4,52.6,30.10,SE,132,1.0,5.0,45,0.00,,,0.00,WUHU216DAVISVP2,2013-05-01 23:57:00,
2013-05-01 20:02:00,75.1,52.9,30.10,ESE,116,2.0,5.0,46,0.00,,,0.00,WUHU216DAVISVP2,2013-05-02 00:02:00,
2013-05-01 20:07:00,75.0,52.2,30.10,ESE,116,2.0,5.0,45,0.00,,,0.00,WUHU216DAVISVP2,2013-05-02 00:07:00,
2013-05-01 20:12:00,74.6,52.4,30.10,SE,131,1.0,5.0,46,0.00,,,0.00,WUHU216DAVISVP2,2013-05-02 00:12:00,
2013-05-01 20:17:00,74.3,52.8,30.10,SE,130,1.0,5.0,47,0.00,,,0.00,WUHU216DAVISVP2,2013-05-02 00:17:00,
2013-05-01 20:22:00,73.9,52.4,30.10,SE,139,1.0,4.0,47,0.00,,,0.00,WUHU216DAVISVP2,2013-05-02 00:22:00,
2013-05-01 20:27:00,73.6,52.1,30.10,ESE,116,1.0,2.0,47,0.00,,,0.00,WUHU216DAVISVP2,2013-05-02 00:27:00,
2013-05-01 20:32:00,73.4,52.0,30.11,SSE,150,4.0,4.0,47,0.00,,,0.00,WUHU216DAVISVP2,2013-05-02 00:32:00,
2013-05-01 20:37:00,73.3,51.9,30.11,SE,127,1.0,5.0,47,0.00,,,0.00,WUHU216DAVISVP2,2013-05-02 00:37:00,
2013-05-01 20:42:00,73.0,52.2,30.11,ESE,103,2.0,5.0,48,0.00,,,0.00,WUHU216DAVISVP2,2013-05-02 00:42:00,
2013-05-01 20:47:00,72.6,52.4,30.11,ESE,121,1.0,5.0,49,0.00,,,0.00,WUHU216DAVISVP2,2013-05-02 00:47:00,
2013-05-01 20:52:00,72.2,52.6,30.11,ESE,116,1.0,4.0,50,0.00,,,0.00,WUHU216DAVISVP2,2013-05-02 00:52:00,
2013-05-01 20:57:00,71.8,52.8,30.11,SE,125,1.0,2.0,51,0.00,,,0.00,WUHU216DAVISVP2,2013-05-02 00:57:00,
2013-05-01 21:02:00,71.5,54.0,30.11,ESE,120,2.0,2.0,54,0.00,,,0.00,WUHU216DAVISVP2,2013-05-02 01:02:00,
2013-05-01 21:07:00,71.2,54.3,30.12,ESE,107,2.0,3.0,55,0.00,,,0.00,WUHU216DAVISVP2,2013-05-02 01:07:00,
2013-05-01 21:12:00,71.1,55.3,30.12,ESE,117,1.0,3.0,57,0.00,,,0.00,WUHU216DAVISVP2,2013-05-02 01:12:00,
2013-05-01 21:17:00,70.8,55.5,30.12,ESE,109,2.0,3.0,58,0.00,,,0.00,WUHU216DAVISVP2,2013-05-02 01:17:00,
2013-05-01 21:22:00,70.6,56.2,30.12,ESE,117,0.0,3.0,60,0.00,,,0.00,WUHU216DAVISVP2,2013-05-02 01:22:00,
2013-05-01 21:27:00,70.2,56.3,30.12,ESE,117,0.0,3.0,61,0.00,,,0.00,WUHU216DAVISVP2,2013-05-02 01:27:00,
2013-05-01 21:32:00,69.7,56.3,30.12,ESE,120,1.0,2.0,62,0.00,,,0.00,WUHU216DAVISVP2,2013-05-02 01:32:00,
2013-05-01 21:37:00,69.6,56.4,30.13,ESE,105,0.0,2.0,63,0.00,,,0.00,WUHU216DAVISVP2,2013-05-02 01:37:00,
2013-05-01 21:42:00,69.1,56.4,30.13,ESE,105,0.0,2.0,64,0.00,,,0.00,WUHU216DAVISVP2,2013-05-02 01:42:00,
2013-05-01 21:47:00,68.7,56.6,30.13,SSE,148,1.0,2.0,65,0.00,,,0.00,WUHU216DAVISVP2,2013-05-02 01:47:00,
2013-05-01 21:52:00,68.4,56.8,30.13,ESE,107,0.0,1.0,66,0.00,,,0.00,WUHU216DAVISVP2,2013-05-02 01:52:00,
2013-05-01 21:57:00,68.3,56.7,30.13,ESE,113,1.0,2.0,66,0.00,,,0.00,WUHU216DAVISVP2,2013-05-02 01:57:00,
2013-05-01 22:02:00,68.2,57.0,30.13,ESE,118,0.0,2.0,67,0.00,,,0.00,WUHU216DAVISVP2,2013-05-02 02:02:00,
2013-05-01 22:07:00,67.8,56.6,30.13,ESE,115,0.0,2.0,67,0.00,,,0.00,WUHU216DAVISVP2,2013-05-02 02:07:00,
2013-05-01 22:12:00,67.6,56.4,30.13,East,100,0.0,3.0,67,0.00,,,0.00,WUHU216DAVISVP2,2013-05-02 02:12:00,
2013-05-01 22:17:00,67.5,56.3,30.13,SE,126,1.0,3.0,67,0.00,,,0.00,WUHU216DAVISVP2,2013-05-02 02:17:00,
2013-05-01 22:22:00,67.4,56.2,30.13,ESE,117,0.0,3.0,67,0.00,,,0.00,WUHU216DAVISVP2,2013-05-02 02:22:00,
2013-05-01 22:27:00,67.1,56.0,30.13,ESE,110,0.0,3.0,67,0.00,,,0.00,WUHU216DAVISVP2,2013-05-02 02:27:00,
2013-05-01 22:32:00,66.7,56.0,30.14,ESE,110,0.0,3.0,68,0.00,,,0.00,WUHU216DAVISVP2,2013-05-02 02:32:00,
2013-05-01 22:37:00,66.4,55.9,30.14,ESE,110,0.0,2.0,69,0.00,,,0.00,WUHU216DAVISVP2,2013-05-02 02:37:00,
2013-05-01 22:42:00,65.9,55.8,30.14,ESE,110,0.0,1.0,70,0.00,,,0.00,WUHU216DAVISVP2,2013-05-02 02:42:00,
2013-05-01 22:47:00,65.6,55.9,30.14,SSE,160,0.0,2.0,71,0.00,,,0.00,WUHU216DAVISVP2,2013-05-02 02:47:00,
2013-05-01 22:52:00,65.5,55.5,30.14,ESE,108,0.0,2.0,70,0.00,,,0.00,WUHU216DAVISVP2,2013-05-02 02:52:00,
2013-05-01 22:57:00,65.6,55.2,30.14,ESE,109,0.0,5.0,69,0.00,,,0.00,WUHU216DAVISVP2,2013-05-02 02:57:00,
2013-05-01 23:02:00,65.3,54.9,30.14,ENE,73,0.0,5.0,69,0.00,,,0.00,WUHU216DAVISVP2,2013-05-02 03:02:00,
2013-05-01 23:07:00,64.9,54.9,30.14,ENE,74,0.0,4.0,70,0.00,,,0.00,WUHU216DAVISVP2,2013-05-02 03:07:00,
2013-05-01 23:12:00,64.5,54.9,30.14,ENE,75,0.0,4.0,71,0.00,,,0.00,WUHU216DAVISVP2,2013-05-02 03:12:00,
2013-05-01 23:17:00,64.2,54.6,30.14,SE,138,0.0,0.0,71,0.00,,,0.00,WUHU216DAVISVP2,2013-05-02 03:17:00,
2013-05-01 23:22:00,64.0,54.8,30.14,SE,138,0.0,0.0,72,0.00,,,0.00,WUHU216DAVISVP2,2013-05-02 03:22:00,
2013-05-01 23:27:00,63.7,54.6,30.14,SE,138,0.0,0.0,72,0.00,,,0.00,WUHU216DAVISVP2,2013-05-02 03:27:00,
2013-05-01 23:32:00,63.4,54.7,30.14,SE,139,0.0,0.0,73,0.00,,,0.00,WUHU216DAVISVP2,2013-05-02 03:32:00,
2013-05-01 23:37:00,63.0,54.3,30.14,SE,139,0.0,0.0,73,0.00,,,0.00,WUHU216DAVISVP2,2013-05-02 03:37:00,
2013-05-01 23:42:00,62.6,54.3,30.14,SE,139,0.0,0.0,74,0.00,,,0.00,WUHU216DAVISVP2,2013-05-02 03:42:00,
2013-05-01 23:47:00,62.1,54.2,30.15,SE,138,0.0,0.0,75,0.00,,,0.00,WUHU216DAVISVP2,2013-05-02 03:47:00,
2013-05-01 23:52:00,61.6,54.1,30.15,SE,138,0.0,0.0,76,0.00,,,0.00,WUHU216DAVISVP2,2013-05-02 03:52:00,
2013-05-01 23:57:00,61.2,54.0,30.15,SE,139,0.0,0.0,77,0.00,,,0.00,WUHU216DAVISVP2,2013-05-02 03:57:00,